Time;durP1;ratioP1;P1;durP2;ratioP2;P2;SDS_P1;SDS_P2;PMS_P1;PMS_P2;Temp;Humidity;BMP_temperature;BMP_pressure;BME280_temperature;BME280_humidity;BME280_pressure;Samples;Min_cycle;Max_cycle;Signal;HPM_P1;HPM_P2
2022/06/25 00:01:24;;;;;;;4.38;2.90;;;17.90;99.90;;;;;;5053533;28;20584;-74
2022/06/25 00:03:51;;;;;;;4.10;2.33;;;18.00;99.90;;;;;;5060002;28;20049;-74
2022/06/25 00:06:18;;;;;;;5.47;3.17;;;18.00;99.90;;;;;;5056805;28;20062;-74
2022/06/25 00:08:44;;;;;;;4.07;2.80;;;18.00;99.90;;;;;;5051350;28;20056;-75
2022/06/25 00:13:55;;;;;;;4.43;2.35;;;17.90;99.90;;;;;;5057751;28;20041;-74
2022/06/25 00:16:21;;;;;;;4.85;2.60;;;17.90;99.90;;;;;;5054405;28;20036;-74
2022/06/25 00:18:46;;;;;;;4.75;2.78;;;17.90;99.90;;;;;;5057424;28;20509;-74
2022/06/25 00:21:12;;;;;;;3.38;2.20;;;17.90;99.90;;;;;;5037981;28;20706;-74
2022/06/25 00:23:37;;;;;;;4.03;2.55;;;17.90;99.90;;;;;;5055961;28;20033;-74
2022/06/25 00:26:03;;;;;;;4.63;2.55;;;17.80;99.90;;;;;;5048887;28;20141;-74
2022/06/25 00:28:28;;;;;;;4.15;2.35;;;17.80;99.90;;;;;;5057303;28;20037;-74
2022/06/25 00:30:54;;;;;;;3.97;2.30;;;17.80;99.90;;;;;;5054970;28;20674;-74
2022/06/25 00:33:19;;;;;;;4.25;2.78;;;17.80;99.90;;;;;;5035288;28;20052;-74
2022/06/25 00:35:46;;;;;;;5.13;3.00;;;17.80;99.90;;;;;;5036527;28;20052;-74
2022/06/25 00:38:11;;;;;;;4.03;2.30;;;17.80;99.90;;;;;;5051574;28;20044;-74
2022/06/25 00:40:37;;;;;;;4.28;2.53;;;17.80;99.90;;;;;;5034980;28;20459;-74
2022/06/25 00:43:03;;;;;;;3.45;2.25;;;17.80;99.90;;;;;;5058117;28;20040;-75
2022/06/25 00:45:28;;;;;;;4.72;2.80;;;17.80;99.90;;;;;;5030184;28;20440;-74
2022/06/25 00:47:54;;;;;;;6.50;2.85;;;17.70;99.90;;;;;;5060139;28;20129;-74
2022/06/25 00:50:19;;;;;;;4.80;2.90;;;17.70;99.90;;;;;;5063233;28;20141;-74
2022/06/25 00:52:52;;;;;;;4.80;2.97;;;17.80;99.90;;;;;;5056627;28;20052;-74
2022/06/25 00:55:20;;;;;;;4.47;2.65;;;17.70;99.90;;;;;;5056542;28;20090;-74
2022/06/25 00:57:49;;;;;;;4.93;2.78;;;17.70;99.90;;;;;;5055298;28;20044;-75
2022/06/25 01:00:17;;;;;;;4.05;2.72;;;17.70;99.90;;;;;;5060517;28;20040;-74
2022/06/25 01:02:44;;;;;;;5.15;2.92;;;17.70;99.90;;;;;;5056269;28;20041;-74
2022/06/25 01:05:12;;;;;;;3.58;2.45;;;17.70;99.90;;;;;;5055702;28;20348;-74
2022/06/25 01:07:39;;;;;;;4.20;2.38;;;17.70;99.90;;;;;;5059362;28;20062;-74
2022/06/25 01:10:09;;;;;;;4.63;3.13;;;17.70;99.90;;;;;;5059850;28;20516;-74
2022/06/25 01:12:35;;;;;;;4.07;2.72;;;17.70;99.90;;;;;;5054517;28;20397;-74
2022/06/25 01:15:13;;;;;;;3.28;2.65;;;17.70;99.90;;;;;;5031245;28;20119;-74
2022/06/25 01:17:50;;;;;;;7.88;3.03;;;17.60;99.90;;;;;;5053776;28;20095;-74
2022/06/25 01:20:18;;;;;;;4.78;3.15;;;17.60;99.90;;;;;;5070654;28;20048;-74
2022/06/25 01:22:44;;;;;;;5.65;3.15;;;17.60;99.90;;;;;;5036594;28;20120;-74
2022/06/25 01:25:11;;;;;;;6.45;2.70;;;17.60;99.90;;;;;;5060891;28;20102;-74
2022/06/25 01:27:37;;;;;;;4.53;2.72;;;17.60;99.90;;;;;;5054634;28;20482;-74
2022/06/25 01:30:05;;;;;;;4.50;2.72;;;17.50;99.90;;;;;;5048439;28;20128;-74
2022/06/25 01:32:30;;;;;;;3.65;2.15;;;17.50;99.90;;;;;;5056453;28;20055;-74
2022/06/25 01:34:56;;;;;;;3.65;2.80;;;17.50;99.90;;;;;;5054995;28;20040;-74
2022/06/25 01:37:22;;;;;;;4.15;2.85;;;17.50;99.90;;;;;;5058743;28;20033;-74
2022/06/25 01:39:55;;;;;;;4.97;3.28;;;17.50;99.90;;;;;;5053710;28;20066;-74
2022/06/25 01:43:06;;;;;;;4.97;3.17;;;17.50;99.90;;;;;;5033985;28;20487;-74
2022/06/25 01:45:08;;;;;;;4.80;3.05;;;17.40;99.90;;;;;;5054344;28;20621;-74
2022/06/25 01:47:34;;;;;;;3.85;2.85;;;17.40;99.90;;;;;;5061326;28;20155;-74
2022/06/25 01:50:00;;;;;;;3.63;2.40;;;17.40;99.90;;;;;;5057568;28;20209;-74
2022/06/25 01:52:26;;;;;;;4.55;2.97;;;17.30;99.90;;;;;;5061224;28;20036;-74
2022/06/25 01:54:51;;;;;;;5.38;3.05;;;17.40;99.90;;;;;;5060111;28;20056;-74
2022/06/25 01:57:17;;;;;;;4.32;2.72;;;17.40;99.90;;;;;;5064905;28;20036;-74
2022/06/25 01:59:45;;;;;;;4.18;2.78;;;17.30;99.90;;;;;;5056452;28;20136;-74
2022/06/25 02:02:10;;;;;;;4.47;2.88;;;17.30;99.90;;;;;;5059472;28;20043;-74
2022/06/25 02:04:36;;;;;;;5.05;3.35;;;17.30;99.90;;;;;;5057482;28;20036;-74
2022/06/25 02:07:02;;;;;;;4.78;3.00;;;17.30;99.90;;;;;;5057851;28;20039;-75
2022/06/25 02:09:27;;;;;;;5.00;2.83;;;17.20;99.90;;;;;;5061672;28;20037;-74
2022/06/25 02:11:53;;;;;;;4.68;2.95;;;17.20;99.90;;;;;;5062746;28;20040;-74
2022/06/25 02:14:18;;;;;;;5.50;2.80;;;17.20;99.90;;;;;;5056864;28;20032;-74
2022/06/25 02:16:44;;;;;;;5.20;3.08;;;17.20;99.90;;;;;;5059354;28;20182;-74
2022/06/25 02:19:10;;;;;;;4.88;3.20;;;17.20;99.90;;;;;;5062112;28;20043;-74
2022/06/25 02:21:35;;;;;;;4.60;3.10;;;17.20;99.90;;;;;;5061253;28;20044;-74
2022/06/25 02:24:01;;;;;;;4.30;2.80;;;17.20;99.90;;;;;;5059686;28;20044;-74
2022/06/25 02:26:28;;;;;;;4.10;2.58;;;17.10;99.90;;;;;;5059050;28;20055;-74
2022/06/25 02:28:54;;;;;;;5.30;3.10;;;17.10;99.90;;;;;;5059276;28;20418;-74
2022/06/25 02:31:19;;;;;;;4.47;3.10;;;17.10;99.90;;;;;;5059126;28;20040;-74
2022/06/25 02:33:45;;;;;;;4.70;3.33;;;17.10;99.90;;;;;;5034419;28;20052;-74
2022/06/25 02:36:11;;;;;;;4.28;2.80;;;17.10;99.90;;;;;;5062772;28;20459;-74
2022/06/25 02:38:36;;;;;;;5.25;3.22;;;17.00;99.90;;;;;;5060888;28;20383;-74
2022/06/25 02:41:02;;;;;;;5.45;3.28;;;17.00;99.90;;;;;;5060309;28;20119;-74
2022/06/25 02:43:28;;;;;;;6.97;3.65;;;17.10;99.90;;;;;;5062530;28;20106;-74
2022/06/25 02:45:53;;;;;;;4.72;3.05;;;17.00;99.90;;;;;;5046365;28;20047;-74
2022/06/25 02:48:19;;;;;;;5.68;3.08;;;17.10;99.90;;;;;;5062923;28;20085;-74
2022/06/25 02:50:45;;;;;;;4.45;2.90;;;17.00;99.90;;;;;;5033439;28;20214;-74
2022/06/25 02:53:11;;;;;;;5.20;3.13;;;17.10;99.90;;;;;;5066669;28;20052;-74
2022/06/25 03:01:04;;;;;;;5.68;3.80;;;17.00;99.90;;;;;;5058841;28;20044;-74
2022/06/25 03:03:30;;;;;;;5.38;3.60;;;17.00;99.90;;;;;;5037039;28;20395;-74
2022/06/25 03:05:56;;;;;;;5.00;3.22;;;17.00;99.90;;;;;;5063952;28;20063;-74
2022/06/25 03:08:22;;;;;;;6.03;3.90;;;17.00;99.90;;;;;;5032674;28;20048;-74
2022/06/25 03:10:47;;;;;;;5.00;3.13;;;17.00;99.90;;;;;;5045571;28;20037;-74
2022/06/25 03:13:13;;;;;;;6.05;3.47;;;17.00;99.90;;;;;;5034515;28;20151;-74
2022/06/25 03:15:39;;;;;;;4.88;3.28;;;17.00;99.90;;;;;;5059306;28;20044;-74
2022/06/25 03:18:04;;;;;;;5.20;3.28;;;17.00;99.90;;;;;;5050923;28;20045;-74
2022/06/25 03:20:30;;;;;;;6.00;3.13;;;17.00;99.90;;;;;;5058446;28;20063;-74
2022/06/25 03:22:56;;;;;;;5.18;3.35;;;16.90;99.90;;;;;;5059978;28;20490;-74
2022/06/25 03:25:23;;;;;;;6.05;3.80;;;16.90;99.90;;;;;;5034427;28;20139;-74
2022/06/25 03:27:48;;;;;;;5.85;3.38;;;16.90;99.90;;;;;;5058278;28;20044;-74
2022/06/25 03:30:14;;;;;;;5.38;3.35;;;16.90;99.90;;;;;;5053798;28;20039;-74
2022/06/25 03:32:40;;;;;;;5.47;3.80;;;16.90;99.90;;;;;;5057820;28;20040;-74
2022/06/25 03:35:06;;;;;;;4.30;2.95;;;16.90;99.90;;;;;;5054164;28;20068;-74
2022/06/25 03:37:31;;;;;;;5.10;3.28;;;16.90;99.90;;;;;;5060129;28;20043;-74
2022/06/25 03:39:57;;;;;;;6.00;3.70;;;16.90;99.90;;;;;;5055290;28;20143;-74
2022/06/25 03:42:23;;;;;;;6.70;3.70;;;16.90;99.90;;;;;;5056165;28;20491;-74
2022/06/25 03:44:48;;;;;;;5.60;3.38;;;16.90;99.90;;;;;;5055206;28;20132;-74
2022/06/25 03:47:14;;;;;;;6.35;3.72;;;16.90;99.90;;;;;;5060646;28;20081;-74
2022/06/25 03:49:39;;;;;;;6.25;4.03;;;16.90;99.90;;;;;;5060890;28;20060;-74
2022/06/25 03:52:05;;;;;;;6.45;3.80;;;16.80;99.90;;;;;;5056950;28;20112;-73
2022/06/25 03:54:31;;;;;;;4.32;2.95;;;16.80;99.90;;;;;;5038241;28;20082;-74
2022/06/25 03:56:56;;;;;;;5.40;3.35;;;16.90;99.90;;;;;;5058772;28;20032;-74
2022/06/25 03:59:22;;;;;;;5.22;3.22;;;16.90;99.90;;;;;;5051122;28;20141;-74
2022/06/25 04:01:48;;;;;;;5.07;3.20;;;16.90;99.90;;;;;;5059622;28;20098;-74
2022/06/25 04:04:14;;;;;;;5.55;3.42;;;16.90;99.90;;;;;;5063225;28;20048;-74
2022/06/25 04:06:39;;;;;;;6.07;3.55;;;16.90;99.90;;;;;;5060319;28;20116;-73
2022/06/25 04:09:05;;;;;;;5.15;3.25;;;16.90;99.90;;;;;;5031944;28;20124;-74
2022/06/25 04:11:31;;;;;;;5.90;3.53;;;16.80;99.90;;;;;;5055534;28;20109;-74
2022/06/25 04:13:56;;;;;;;4.60;3.10;;;16.90;99.90;;;;;;5054475;28;20033;-73
2022/06/25 04:16:23;;;;;;;5.97;3.80;;;16.90;99.90;;;;;;5059257;28;20079;-74
2022/06/25 04:18:49;;;;;;;4.28;2.90;;;16.90;99.90;;;;;;5060379;28;20056;-73
2022/06/25 04:21:14;;;;;;;6.65;3.25;;;16.90;99.90;;;;;;5054114;28;20049;-74
2022/06/25 04:23:40;;;;;;;5.85;3.40;;;16.90;99.90;;;;;;5057115;28;20103;-74
2022/06/25 04:26:07;;;;;;;4.78;2.97;;;16.90;99.90;;;;;;5062006;28;20049;-74
2022/06/25 04:31:17;;;;;;;6.93;3.38;;;17.00;99.90;;;;;;5055544;28;20382;-74
2022/06/25 04:33:42;;;;;;;4.97;2.90;;;17.00;99.90;;;;;;5057811;28;20561;-74
2022/06/25 04:36:08;;;;;;;4.93;3.10;;;17.00;99.90;;;;;;5058230;28;20397;-73
2022/06/25 04:38:34;;;;;;;4.82;3.08;;;17.00;99.90;;;;;;5062952;28;20037;-74
2022/06/25 04:40:59;;;;;;;5.88;3.38;;;17.00;99.90;;;;;;5052828;28;20042;-74
2022/06/25 04:43:25;;;;;;;4.55;3.00;;;17.00;99.90;;;;;;5056773;28;20072;-74
2022/06/25 04:45:51;;;;;;;5.47;3.08;;;17.00;99.90;;;;;;5057511;28;20040;-74
2022/06/25 04:48:16;;;;;;;4.70;2.85;;;17.10;99.90;;;;;;5046061;28;20037;-74
2022/06/25 04:50:44;;;;;;;5.15;2.92;;;17.00;99.90;;;;;;5033886;28;20036;-74
2022/06/25 04:53:10;;;;;;;4.72;2.80;;;17.10;99.90;;;;;;5059922;28;20066;-73
2022/06/25 04:55:35;;;;;;;5.43;2.70;;;17.10;99.90;;;;;;5053448;28;20410;-73
2022/06/25 04:58:02;;;;;;;4.60;2.90;;;17.10;99.90;;;;;;5058235;28;20040;-74
2022/06/25 05:00:27;;;;;;;4.47;2.72;;;17.10;99.90;;;;;;5060543;28;20051;-74
2022/06/25 05:02:53;;;;;;;4.97;2.92;;;17.20;99.90;;;;;;5055578;28;20032;-74
2022/06/25 05:05:19;;;;;;;4.38;2.90;;;17.20;99.90;;;;;;5055343;28;20044;-74
2022/06/25 05:07:44;;;;;;;4.55;2.72;;;17.20;99.90;;;;;;5058733;28;20047;-74
2022/06/25 05:10:10;;;;;;;5.22;3.20;;;17.20;99.90;;;;;;5059175;28;20049;-74
2022/06/25 05:15:21;;;;;;;3.50;2.38;;;17.20;99.90;;;;;;5061373;28;20033;-74
2022/06/25 05:17:47;;;;;;;4.88;2.60;;;17.20;99.90;;;;;;5057050;28;20100;-74
2022/06/25 05:20:13;;;;;;;4.40;2.97;;;17.20;99.90;;;;;;5056991;28;20526;-74
2022/06/25 05:22:38;;;;;;;3.33;2.40;;;17.30;99.90;;;;;;5058585;28;20040;-74
2022/06/25 05:25:05;;;;;;;4.03;2.42;;;17.30;99.90;;;;;;5031054;28;20106;-73
2022/06/25 05:27:30;;;;;;;4.10;2.53;;;17.30;99.90;;;;;;5035082;28;20037;-74
2022/06/25 05:29:56;;;;;;;4.05;2.35;;;17.30;99.90;;;;;;5059165;28;20382;-74
2022/06/25 05:32:22;;;;;;;4.82;2.30;;;17.30;99.90;;;;;;5032629;28;20036;-74
2022/06/25 05:34:48;;;;;;;4.60;2.63;;;17.40;99.90;;;;;;5034450;28;20051;-73
2022/06/25 05:37:14;;;;;;;4.65;2.35;;;17.40;99.90;;;;;;5034327;28;20052;-73
2022/06/25 05:39:40;;;;;;;5.35;2.67;;;17.40;99.90;;;;;;5043075;28;20040;-73
2022/06/25 05:42:06;;;;;;;3.80;2.58;;;17.40;99.90;;;;;;5053424;28;20521;-74
2022/06/25 05:44:32;;;;;;;4.93;2.40;;;17.50;99.90;;;;;;5059347;28;20032;-74
2022/06/25 05:46:57;;;;;;;4.03;2.33;;;17.50;99.90;;;;;;5059724;28;20051;-74
2022/06/25 05:49:23;;;;;;;3.95;2.33;;;17.50;99.90;;;;;;5056928;28;20040;-74
2022/06/25 05:51:48;;;;;;;4.20;2.55;;;17.60;99.90;;;;;;5058099;28;20577;-74
2022/06/25 05:54:14;;;;;;;4.90;2.40;;;17.60;99.90;;;;;;5057403;28;20028;-74
2022/06/25 05:56:40;;;;;;;3.60;2.15;;;17.50;99.90;;;;;;5059018;28;20133;-74
2022/06/25 05:59:05;;;;;;;4.00;2.13;;;17.70;99.90;;;;;;5050711;28;20052;-74
2022/06/25 06:01:31;;;;;;;4.15;2.50;;;17.70;99.90;;;;;;5040752;28;20064;-74
2022/06/25 06:03:56;;;;;;;5.45;2.53;;;17.70;99.90;;;;;;5034747;28;20040;-74
2022/06/25 06:06:22;;;;;;;3.42;2.25;;;17.70;99.90;;;;;;5051760;28;20040;-74
2022/06/25 06:08:48;;;;;;;2.92;1.70;;;17.70;99.90;;;;;;5054601;28;20486;-74
2022/06/25 06:11:13;;;;;;;3.95;2.28;;;17.80;99.90;;;;;;5056905;28;20040;-74
2022/06/25 06:13:39;;;;;;;3.90;1.67;;;17.80;99.90;;;;;;5043050;28;20051;-74
2022/06/25 06:16:04;;;;;;;3.50;2.05;;;17.90;99.90;;;;;;5058874;28;20339;-74
2022/06/25 06:18:30;;;;;;;5.97;2.30;;;18.00;99.90;;;;;;5036931;28;20048;-74
2022/06/25 06:20:55;;;;;;;4.95;2.90;;;18.00;99.90;;;;;;5038623;28;20549;-74
2022/06/25 06:23:21;;;;;;;4.70;2.20;;;18.10;99.90;;;;;;5057682;28;20118;-74
2022/06/25 06:25:47;;;;;;;4.75;2.35;;;18.20;99.90;;;;;;5059617;28;20566;-74
2022/06/25 06:28:12;;;;;;;4.05;2.45;;;18.20;99.90;;;;;;5049801;28;20440;-74
2022/06/25 06:30:38;;;;;;;3.60;2.25;;;18.30;99.90;;;;;;5054927;28;20630;-74
2022/06/25 06:33:04;;;;;;;3.85;2.40;;;18.40;99.90;;;;;;5055494;28;20044;-77
2022/06/25 06:35:29;;;;;;;3.92;1.95;;;18.70;99.90;;;;;;5032760;28;20045;-74
2022/06/25 06:37:55;;;;;;;2.72;1.83;;;19.40;99.90;;;;;;5057546;28;20055;-75
2022/06/25 06:40:20;;;;;;;2.83;1.45;;;20.50;99.90;;;;;;5057721;28;20074;-75
2022/06/25 06:42:46;;;;;;;5.85;1.83;;;21.50;99.90;;;;;;5060464;28;20039;-75
2022/06/25 06:45:12;;;;;;;5.45;2.00;;;22.40;99.90;;;;;;5037423;28;20406;-74
2022/06/25 06:47:37;;;;;;;2.75;1.70;;;23.10;99.90;;;;;;5060228;28;20448;-74
2022/06/25 06:50:03;;;;;;;3.33;1.55;;;23.90;99.90;;;;;;5059572;28;20044;-74
2022/06/25 06:52:29;;;;;;;2.22;1.20;;;24.50;99.90;;;;;;5054338;28;20416;-75
2022/06/25 06:54:54;;;;;;;3.05;1.27;;;24.40;99.90;;;;;;5043014;28;20036;-75
2022/06/25 06:57:20;;;;;;;2.00;1.17;;;23.80;99.90;;;;;;5057938;28;20162;-74
2022/06/25 06:59:46;;;;;;;1.88;1.20;;;23.20;99.90;;;;;;5060007;28;20497;-74
2022/06/25 07:02:12;;;;;;;1.95;1.10;;;22.60;99.90;;;;;;5052652;28;20188;-74
2022/06/25 07:04:37;;;;;;;1.75;1.00;;;22.10;99.90;;;;;;5049069;28;20128;-75
2022/06/25 07:07:03;;;;;;;1.92;0.90;;;21.80;99.90;;;;;;5059523;28;20036;-75
2022/06/25 07:09:28;;;;;;;1.90;0.88;;;21.50;99.90;;;;;;5056059;28;20068;-74
2022/06/25 07:11:54;;;;;;;2.40;0.90;;;21.30;99.90;;;;;;5054476;28;20037;-74
2022/06/25 07:14:20;;;;;;;3.67;1.00;;;21.10;99.90;;;;;;5054202;28;20130;-74
2022/06/25 07:16:45;;;;;;;1.38;1.10;;;21.00;99.90;;;;;;5054822;28;20068;-74
2022/06/25 07:19:11;;;;;;;2.70;1.20;;;20.80;99.90;;;;;;5057947;28;20423;-75
2022/06/25 07:21:36;;;;;;;1.40;0.95;;;20.80;99.90;;;;;;5047161;28;20510;-74
2022/06/25 07:24:02;;;;;;;2.25;1.38;;;20.70;99.90;;;;;;5061171;28;20035;-74
2022/06/25 07:26:28;;;;;;;2.00;1.00;;;20.60;99.90;;;;;;5032474;28;20571;-73
2022/06/25 07:28:54;;;;;;;3.17;1.48;;;20.60;99.90;;;;;;5060261;28;20448;-74
2022/06/25 07:31:20;;;;;;;2.83;1.40;;;20.60;99.90;;;;;;5056630;28;20063;-73
2022/06/25 07:33:46;;;;;;;1.80;1.08;;;20.60;99.90;;;;;;5034406;28;20040;-74
2022/06/25 07:36:11;;;;;;;3.40;1.08;;;20.60;99.90;;;;;;5060712;28;20086;-74
2022/06/25 07:38:37;;;;;;;3.58;1.30;;;20.50;99.90;;;;;;5058784;28;20537;-74
2022/06/25 07:41:03;;;;;;;1.73;0.90;;;20.50;99.90;;;;;;5040459;28;20105;-74
2022/06/25 07:43:29;;;;;;;1.80;1.05;;;20.50;99.90;;;;;;5056138;28;20045;-74
2022/06/25 07:45:55;;;;;;;2.15;1.30;;;20.60;99.90;;;;;;5061736;28;20068;-74
2022/06/25 07:48:22;;;;;;;3.00;1.60;;;20.60;99.90;;;;;;5054775;28;20115;-74
2022/06/25 07:53:31;;;;;;;3.13;1.50;;;20.60;99.90;;;;;;5073054;28;20557;-74
2022/06/25 07:55:57;;;;;;;1.40;0.77;;;20.60;99.90;;;;;;5059937;28;20115;-75
2022/06/25 07:58:23;;;;;;;3.10;1.35;;;20.60;99.90;;;;;;5057258;28;20041;-74
2022/06/25 08:00:49;;;;;;;1.98;1.00;;;20.60;99.90;;;;;;5060139;28;20149;-74
2022/06/25 08:03:15;;;;;;;1.67;1.20;;;20.50;99.90;;;;;;5058142;28;20804;-74
2022/06/25 08:05:41;;;;;;;3.33;1.30;;;20.60;99.90;;;;;;5045005;28;20052;-74
2022/06/25 08:08:07;;;;;;;2.15;1.20;;;20.60;99.90;;;;;;5033410;28;20037;-74
2022/06/25 08:10:32;;;;;;;2.00;1.08;;;20.50;99.90;;;;;;5049486;28;20044;-74
2022/06/25 08:12:58;;;;;;;1.98;1.10;;;20.50;99.90;;;;;;5057859;28;20060;-74
2022/06/25 08:15:23;;;;;;;1.60;1.00;;;20.50;99.90;;;;;;5051053;28;20048;-74
2022/06/25 08:17:49;;;;;;;1.63;1.00;;;20.50;99.90;;;;;;5054792;28;20131;-74
2022/06/25 08:20:15;;;;;;;3.08;1.45;;;20.50;99.90;;;;;;5062262;28;20683;-74
2022/06/25 08:22:40;;;;;;;1.33;0.80;;;20.60;99.90;;;;;;5061520;28;20043;-74
2022/06/25 08:25:07;;;;;;;1.55;0.80;;;20.60;99.90;;;;;;5059733;28;20094;-74
2022/06/25 08:27:34;;;;;;;2.75;0.95;;;20.70;99.90;;;;;;5031228;28;20078;-74
2022/06/25 08:29:59;;;;;;;3.78;1.08;;;20.70;99.90;;;;;;5057050;28;20040;-74
2022/06/25 08:32:25;;;;;;;2.05;0.90;;;20.70;99.90;;;;;;5053408;28;20090;-74
2022/06/25 08:34:51;;;;;;;2.40;1.23;;;20.80;99.90;;;;;;5059124;28;20168;-74
2022/06/25 08:37:16;;;;;;;1.67;1.08;;;20.80;99.90;;;;;;5029339;28;20103;-74
2022/06/25 08:39:42;;;;;;;1.38;0.90;;;20.90;99.90;;;;;;5055533;28;20036;-74
2022/06/25 08:42:07;;;;;;;1.73;0.82;;;21.00;99.90;;;;;;5057687;28;20402;-74
2022/06/25 08:44:33;;;;;;;2.58;0.88;;;21.00;99.90;;;;;;5055694;28;20033;-74
2022/06/25 08:46:59;;;;;;;1.83;1.10;;;21.10;99.90;;;;;;5058455;28;20041;-74
2022/06/25 08:49:29;;;;;;;2.03;1.00;;;21.10;99.90;;;;;;5046653;28;20229;-74
2022/06/25 08:51:57;;;;;;;2.03;0.90;;;21.10;99.90;;;;;;5030376;28;20041;-74
2022/06/25 08:54:24;;;;;;;1.83;0.70;;;21.20;99.90;;;;;;5054138;28;20032;-74
2022/06/25 08:56:50;;;;;;;1.52;0.77;;;21.30;99.90;;;;;;5061584;28;20650;-74
2022/06/25 08:59:16;;;;;;;1.13;0.70;;;21.30;99.90;;;;;;5058334;28;20029;-74
2022/06/25 09:01:42;;;;;;;0.90;0.50;;;21.40;99.90;;;;;;5050643;28;20054;-74
2022/06/25 09:04:08;;;;;;;1.55;0.70;;;21.40;99.90;;;;;;5048381;28;20032;-74
2022/06/25 09:06:33;;;;;;;1.25;0.88;;;21.50;99.90;;;;;;5057336;28;20130;-74
2022/06/25 09:09:13;;;;;;;1.10;0.70;;;21.50;99.90;;;;;;5055872;28;20040;-74
2022/06/25 09:11:51;;;;;;;0.80;0.60;;;21.50;99.90;;;;;;5055412;28;20159;-74
2022/06/25 09:14:28;;;;;;;1.35;0.70;;;21.40;99.90;;;;;;5057632;28;20068;-74
2022/06/25 09:17:00;;;;;;;1.73;1.05;;;21.40;99.90;;;;;;5041662;28;20164;-74
2022/06/25 09:19:43;;;;;;;1.13;0.50;;;21.20;99.90;;;;;;5048942;28;20079;-74
2022/06/25 09:22:17;;;;;;;1.40;0.80;;;21.30;99.90;;;;;;5035060;28;20577;-74
2022/06/25 09:24:48;;;;;;;1.67;0.77;;;21.20;99.90;;;;;;5033903;28;20080;-74
2022/06/25 09:27:19;;;;;;;1.25;0.80;;;21.20;99.90;;;;;;5041844;28;20052;-74
2022/06/25 09:29:48;;;;;;;1.10;0.65;;;21.20;99.90;;;;;;5049012;28;20098;-74
2022/06/25 09:32:14;;;;;;;1.90;0.80;;;21.40;99.90;;;;;;5058784;28;20478;-74
2022/06/25 09:34:40;;;;;;;0.85;0.63;;;21.50;99.90;;;;;;5047880;28;20517;-74
2022/06/25 09:37:17;;;;;;;1.58;0.60;;;21.50;99.90;;;;;;5039612;28;20034;-74
2022/06/25 09:39:45;;;;;;;1.27;0.65;;;21.60;99.90;;;;;;5053781;28;20045;-74
2022/06/25 09:42:27;;;;;;;1.50;0.80;;;21.50;99.90;;;;;;5053159;28;20036;-74
2022/06/25 09:45:09;;;;;;;5.00;0.80;;;21.50;99.90;;;;;;5050067;28;20425;-74
2022/06/25 09:47:45;;;;;;;1.15;0.60;;;21.40;99.90;;;;;;5037304;28;20040;-74
2022/06/25 09:50:11;;;;;;;1.10;0.60;;;21.40;99.90;;;;;;5052845;28;20325;-74
2022/06/25 09:52:48;;;;;;;2.47;0.85;;;21.40;99.90;;;;;;5052480;28;20044;-73
2022/06/25 09:55:14;;;;;;;1.45;0.73;;;21.40;99.90;;;;;;5068164;28;20037;-74
2022/06/25 09:57:40;;;;;;;1.27;0.73;;;21.50;99.90;;;;;;5029127;28;20095;-74
2022/06/25 10:00:07;;;;;;;1.27;0.80;;;21.60;99.90;;;;;;5052553;28;20082;-74
2022/06/25 10:02:33;;;;;;;1.58;0.80;;;21.60;99.90;;;;;;5058033;28;20032;-73
2022/06/25 10:05:03;;;;;;;1.40;0.80;;;21.60;99.90;;;;;;5052536;28;20405;-74
2022/06/25 10:10:18;;;;;;;0.93;0.68;;;21.70;99.90;;;;;;5074150;28;21393;-73
2022/06/25 10:12:46;;;;;;;1.52;0.80;;;21.80;99.90;;;;;;5058702;28;20040;-73
2022/06/25 10:15:17;;;;;;;1.27;0.50;;;21.80;99.90;;;;;;5062945;28;20137;-73
2022/06/25 10:17:48;;;;;;;1.48;0.73;;;21.80;99.90;;;;;;5064293;28;20053;-73
2022/06/25 10:20:15;;;;;;;0.85;0.52;;;21.80;99.90;;;;;;5059697;28;20049;-73
2022/06/25 10:22:43;;;;;;;1.13;0.60;;;21.90;99.90;;;;;;5061974;28;20418;-73
2022/06/25 10:25:18;;;;;;;1.17;0.70;;;21.90;99.90;;;;;;5054788;28;20340;-73
2022/06/25 10:27:46;;;;;;;1.48;0.85;;;22.00;99.90;;;;;;5052918;28;20052;-73
2022/06/25 10:30:14;;;;;;;1.67;1.10;;;22.10;99.90;;;;;;5061365;28;20047;-74
2022/06/25 10:32:47;;;;;;;1.50;0.80;;;22.10;99.90;;;;;;5047829;28;20052;-73
2022/06/25 10:35:31;;;;;;;1.27;0.60;;;22.10;99.90;;;;;;5055854;28;20052;-73
2022/06/25 10:38:16;;;;;;;1.40;0.85;;;22.20;99.90;;;;;;5047876;28;20123;-73
2022/06/25 10:40:59;;;;;;;1.30;0.70;;;22.20;99.90;;;;;;5057432;28;20033;-73
2022/06/25 10:43:47;;;;;;;2.20;0.70;;;22.20;99.90;;;;;;5068621;28;20051;-74
2022/06/25 10:46:21;;;;;;;1.55;0.73;;;22.30;99.90;;;;;;5056585;28;20562;-73
2022/06/25 10:48:51;;;;;;;0.77;0.50;;;22.20;99.90;;;;;;5057486;28;20052;-73
2022/06/25 10:51:43;;;;;;;2.75;0.80;;;22.20;99.90;;;;;;5059470;28;20557;-73
2022/06/25 10:54:35;;;;;;;1.05;0.60;;;22.20;99.90;;;;;;5067018;28;20522;-73
2022/06/25 10:57:02;;;;;;;1.20;0.70;;;22.30;99.90;;;;;;5053993;28;20048;-73
2022/06/25 10:59:46;;;;;;;1.02;0.63;;;22.20;99.90;;;;;;5063149;28;20063;-73
2022/06/25 11:02:16;;;;;;;0.88;0.70;;;22.20;99.90;;;;;;5061029;28;20047;-73
2022/06/25 11:04:49;;;;;;;0.90;0.60;;;22.20;99.90;;;;;;5061591;28;20043;-73
2022/06/25 11:07:23;;;;;;;0.80;0.43;;;22.10;99.90;;;;;;5059694;28;20036;-73
2022/06/25 11:09:58;;;;;;;0.68;0.50;;;22.20;99.90;;;;;;5051314;28;20187;-73
2022/06/25 11:12:25;;;;;;;0.93;0.60;;;22.20;99.90;;;;;;5070007;28;20435;-73
2022/06/25 11:14:59;;;;;;;1.67;0.60;;;22.20;99.90;;;;;;5064557;28;20039;-73
2022/06/25 11:17:25;;;;;;;1.05;0.70;;;22.20;99.90;;;;;;5055565;28;20545;-73
2022/06/25 11:19:50;;;;;;;0.93;0.57;;;22.20;99.90;;;;;;5049002;28;20122;-73
2022/06/25 11:22:16;;;;;;;3.88;0.40;;;22.20;99.90;;;;;;5045855;28;20091;-73
2022/06/25 11:28:47;;;;;;;0.93;0.50;;;22.30;99.90;;;;;;5061487;28;20036;-73
2022/06/25 11:30:14;;;;;;;1.60;0.80;;;22.40;99.90;;;;;;5058292;28;20448;-73
2022/06/25 11:32:46;;;;;;;0.95;0.70;;;22.50;99.90;;;;;;5051524;28;20105;-73
2022/06/25 11:35:12;;;;;;;0.60;0.50;;;22.70;99.90;;;;;;5053430;28;20041;-73
2022/06/25 11:37:37;;;;;;;0.75;0.50;;;22.70;99.90;;;;;;5054542;28;20041;-73
2022/06/25 11:40:12;;;;;;;0.73;0.45;;;22.80;99.90;;;;;;5056226;28;20060;-73
2022/06/25 11:42:38;;;;;;;0.65;0.40;;;22.70;99.90;;;;;;5066249;28;20048;-73
2022/06/25 11:45:04;;;;;;;1.10;0.52;;;22.70;99.90;;;;;;5060904;28;20583;-73
2022/06/25 11:47:30;;;;;;;3.20;0.65;;;22.50;99.90;;;;;;5044811;28;20379;-73
2022/06/25 11:49:56;;;;;;;0.82;0.50;;;22.50;99.90;;;;;;5055170;28;20097;-73
2022/06/25 11:52:24;;;;;;;2.88;0.80;;;22.50;99.90;;;;;;5053321;28;20048;-74
2022/06/25 11:54:51;;;;;;;1.00;0.40;;;22.60;99.90;;;;;;5062006;28;20089;-74
2022/06/25 11:57:27;;;;;;;0.95;0.57;;;22.70;99.90;;;;;;5047542;28;21029;-74
2022/06/25 11:59:55;;;;;;;0.93;0.50;;;22.60;99.90;;;;;;5072601;28;20776;-75
2022/06/25 12:02:21;;;;;;;1.02;0.50;;;22.60;99.90;;;;;;5058131;28;20052;-74
2022/06/25 12:04:59;;;;;;;0.63;0.50;;;22.50;99.90;;;;;;5058288;28;20085;-74
2022/06/25 12:07:28;;;;;;;1.27;0.60;;;22.40;99.90;;;;;;5065114;28;20037;-74
2022/06/25 12:09:56;;;;;;;0.85;0.45;;;22.40;99.90;;;;;;5060051;28;20484;-74
2022/06/25 12:12:23;;;;;;;0.60;0.30;;;22.20;99.90;;;;;;5051157;28;20040;-74
2022/06/25 12:14:50;;;;;;;1.83;0.75;;;22.20;99.90;;;;;;5041611;28;20090;-73
2022/06/25 12:17:17;;;;;;;0.73;0.40;;;22.10;99.90;;;;;;5059065;28;20051;-73
2022/06/25 12:19:53;;;;;;;0.93;0.50;;;22.00;99.90;;;;;;5051253;28;20450;-74
2022/06/25 12:22:27;;;;;;;2.15;0.52;;;21.90;99.90;;;;;;5058503;28;20483;-72
2022/06/25 12:24:56;;;;;;;0.85;0.52;;;21.80;99.90;;;;;;5050058;28;20041;-73
2022/06/25 12:27:22;;;;;;;0.95;0.52;;;21.80;99.90;;;;;;5052036;28;20069;-73
2022/06/25 12:29:50;;;;;;;1.40;0.70;;;21.80;99.90;;;;;;5056348;28;20044;-73
2022/06/25 12:32:16;;;;;;;0.90;0.50;;;21.80;99.90;;;;;;5046058;28;20032;-74
2022/06/25 12:34:47;;;;;;;1.15;0.57;;;21.70;99.90;;;;;;5056916;28;20414;-74
2022/06/25 12:37:26;;;;;;;1.17;0.68;;;21.70;99.90;;;;;;5063746;28;20058;-73
2022/06/25 12:39:52;;;;;;;1.25;0.65;;;21.60;99.90;;;;;;5056740;28;20115;-73
2022/06/25 12:42:18;;;;;;;1.98;0.70;;;21.60;99.90;;;;;;5046803;28;20132;-73
2022/06/25 12:44:44;;;;;;;1.88;0.80;;;21.50;99.90;;;;;;5045878;28;20040;-74
2022/06/25 12:47:12;;;;;;;1.60;0.70;;;21.50;99.90;;;;;;5045894;28;20043;-73
2022/06/25 12:49:54;;;;;;;1.30;0.73;;;21.40;99.90;;;;;;5046381;28;20448;-73
2022/06/25 12:52:21;;;;;;;0.98;0.57;;;21.50;99.90;;;;;;5046946;28;20083;-73
2022/06/25 12:54:52;;;;;;;1.17;0.73;;;21.40;99.90;;;;;;5030523;28;20052;-73
2022/06/25 12:57:24;;;;;;;1.13;0.77;;;21.40;99.90;;;;;;5062674;28;20041;-73
2022/06/25 12:59:51;;;;;;;1.25;0.70;;;21.40;99.90;;;;;;5046990;28;20033;-73
2022/06/25 13:02:17;;;;;;;1.50;0.73;;;21.30;99.90;;;;;;5046987;28;20123;-73
2022/06/25 13:04:43;;;;;;;0.82;0.68;;;21.40;99.90;;;;;;5045438;28;20036;-73
2022/06/25 13:07:12;;;;;;;0.95;0.52;;;21.30;99.90;;;;;;5060715;28;20036;-73
2022/06/25 13:09:43;;;;;;;1.98;0.90;;;21.30;99.90;;;;;;5035555;28;20462;-73
2022/06/25 13:12:10;;;;;;;0.82;0.60;;;21.20;99.90;;;;;;5046296;28;20040;-73